sensor_id;sensor_type;location;lat;lon;timestamp;temperature;humidity
51811;DHT22;52468;40.116;18.296;2022-09-28T00:01:22;19.50;72.60
51811;DHT22;52468;40.116;18.296;2022-09-28T00:03:54;19.50;72.50
51811;DHT22;52468;40.116;18.296;2022-09-28T00:06:26;19.50;72.70
51811;DHT22;52468;40.116;18.296;2022-09-28T00:08:55;19.50;72.60
51811;DHT22;52468;40.116;18.296;2022-09-28T00:11:24;19.40;72.80
51811;DHT22;52468;40.116;18.296;2022-09-28T00:13:57;19.40;73.00
51811;DHT22;52468;40.116;18.296;2022-09-28T00:16:34;19.40;72.90
51811;DHT22;52468;40.116;18.296;2022-09-28T00:19:03;19.40;73.10
51811;DHT22;52468;40.116;18.296;2022-09-28T00:21:34;19.30;73.20
51811;DHT22;52468;40.116;18.296;2022-09-28T00:24:03;19.30;73.30
51811;DHT22;52468;40.116;18.296;2022-09-28T00:26:46;19.30;73.40
51811;DHT22;52468;40.116;18.296;2022-09-28T00:29:18;19.20;73.70
51811;DHT22;52468;40.116;18.296;2022-09-28T00:31:47;19.20;74.00
51811;DHT22;52468;40.116;18.296;2022-09-28T00:34:15;19.10;74.40
51811;DHT22;52468;40.116;18.296;2022-09-28T00:36:44;19.10;74.60
51811;DHT22;52468;40.116;18.296;2022-09-28T00:39:14;19.10;74.90
51811;DHT22;52468;40.116;18.296;2022-09-28T00:41:42;19.10;74.90
51811;DHT22;52468;40.116;18.296;2022-09-28T00:45:00;19.10;74.90
51811;DHT22;52468;40.116;18.296;2022-09-28T00:52:54;19.30;74.80
51811;DHT22;52468;40.116;18.296;2022-09-28T00:55:42;19.30;74.50
51811;DHT22;52468;40.116;18.296;2022-09-28T00:58:17;19.40;74.50
51811;DHT22;52468;40.116;18.296;2022-09-28T01:00:47;19.50;74.30
51811;DHT22;52468;40.116;18.296;2022-09-28T01:03:16;19.50;74.10
51811;DHT22;52468;40.116;18.296;2022-09-28T01:05:45;19.50;74.00
51811;DHT22;52468;40.116;18.296;2022-09-28T01:08:14;19.50;74.00
51811;DHT22;52468;40.116;18.296;2022-09-28T01:10:43;19.50;73.90
51811;DHT22;52468;40.116;18.296;2022-09-28T01:13:13;19.50;73.50
51811;DHT22;52468;40.116;18.296;2022-09-28T01:15:52;19.50;73.30
51811;DHT22;52468;40.116;18.296;2022-09-28T01:21:21;19.50;73.10
51811;DHT22;52468;40.116;18.296;2022-09-28T01:24:26;19.60;72.80
51811;DHT22;52468;40.116;18.296;2022-09-28T01:28:11;19.60;72.60
51811;DHT22;52468;40.116;18.296;2022-09-28T01:30:14;19.80;72.30
51811;DHT22;52468;40.116;18.296;2022-09-28T01:33:05;19.70;72.10
51811;DHT22;52468;40.116;18.296;2022-09-28T01:36:26;19.80;71.90
51811;DHT22;52468;40.116;18.296;2022-09-28T01:38:49;19.80;71.70
51811;DHT22;52468;40.116;18.296;2022-09-28T01:41:21;19.80;71.60
51811;DHT22;52468;40.116;18.296;2022-09-28T01:43:55;19.80;71.70
51811;DHT22;52468;40.116;18.296;2022-09-28T01:46:37;19.80;71.70
51811;DHT22;52468;40.116;18.296;2022-09-28T01:49:13;19.80;71.80
51811;DHT22;52468;40.116;18.296;2022-09-28T01:54:20;19.70;71.90
51811;DHT22;52468;40.116;18.296;2022-09-28T01:57:04;19.70;72.00
51811;DHT22;52468;40.116;18.296;2022-09-28T01:59:36;19.60;72.10
51811;DHT22;52468;40.116;18.296;2022-09-28T02:02:17;19.60;72.40
51811;DHT22;52468;40.116;18.296;2022-09-28T02:04:54;19.50;72.70
51811;DHT22;52468;40.116;18.296;2022-09-28T02:10:23;19.60;73.30
51811;DHT22;52468;40.116;18.296;2022-09-28T02:13:15;19.60;73.60
51811;DHT22;52468;40.116;18.296;2022-09-28T02:15:50;19.60;73.70
51811;DHT22;52468;40.116;18.296;2022-09-28T02:18:20;19.60;74.00
51811;DHT22;52468;40.116;18.296;2022-09-28T02:21:06;19.70;74.00
51811;DHT22;52468;40.116;18.296;2022-09-28T02:23:38;19.70;73.90
51811;DHT22;52468;40.116;18.296;2022-09-28T02:26:11;19.80;73.80
51811;DHT22;52468;40.116;18.296;2022-09-28T02:28:40;19.80;74.00
51811;DHT22;52468;40.116;18.296;2022-09-28T02:31:09;19.70;74.10
51811;DHT22;52468;40.116;18.296;2022-09-28T02:33:39;19.70;74.30
51811;DHT22;52468;40.116;18.296;2022-09-28T02:36:09;19.70;74.30
51811;DHT22;52468;40.116;18.296;2022-09-28T02:38:38;19.70;74.40
51811;DHT22;52468;40.116;18.296;2022-09-28T02:50:24;19.60;74.70
51811;DHT22;52468;40.116;18.296;2022-09-28T03:01:33;19.40;75.30
51811;DHT22;52468;40.116;18.296;2022-09-28T03:03:49;19.30;75.50
51811;DHT22;52468;40.116;18.296;2022-09-28T03:06:45;19.40;75.60
51811;DHT22;52468;40.116;18.296;2022-09-28T03:12:08;19.30;76.00
51811;DHT22;52468;40.116;18.296;2022-09-28T03:14:37;19.30;76.10
51811;DHT22;52468;40.116;18.296;2022-09-28T03:17:06;19.30;76.60
51811;DHT22;52468;40.116;18.296;2022-09-28T03:19:34;19.30;76.60
51811;DHT22;52468;40.116;18.296;2022-09-28T03:22:03;19.30;76.90
51811;DHT22;52468;40.116;18.296;2022-09-28T03:24:32;19.40;77.20
51811;DHT22;52468;40.116;18.296;2022-09-28T03:27:01;19.40;78.00
51811;DHT22;52468;40.116;18.296;2022-09-28T03:29:29;19.40;78.50
51811;DHT22;52468;40.116;18.296;2022-09-28T03:32:03;19.50;78.50
51811;DHT22;52468;40.116;18.296;2022-09-28T03:34:31;19.50;78.90
51811;DHT22;52468;40.116;18.296;2022-09-28T03:37:00;19.50;79.00
51811;DHT22;52468;40.116;18.296;2022-09-28T03:39:27;19.50;79.10
51811;DHT22;52468;40.116;18.296;2022-09-28T03:41:55;19.60;79.20
51811;DHT22;52468;40.116;18.296;2022-09-28T03:44:23;19.60;79.40
51811;DHT22;52468;40.116;18.296;2022-09-28T03:46:51;19.70;79.50
51811;DHT22;52468;40.116;18.296;2022-09-28T03:49:20;19.70;79.70
51811;DHT22;52468;40.116;18.296;2022-09-28T03:51:49;19.70;79.60
51811;DHT22;52468;40.116;18.296;2022-09-28T03:54:17;19.70;79.60
51811;DHT22;52468;40.116;18.296;2022-09-28T03:56:45;19.70;79.60
51811;DHT22;52468;40.116;18.296;2022-09-28T03:59:13;19.70;79.70
51811;DHT22;52468;40.116;18.296;2022-09-28T04:01:41;19.70;79.80
51811;DHT22;52468;40.116;18.296;2022-09-28T04:04:11;19.70;79.70
51811;DHT22;52468;40.116;18.296;2022-09-28T04:06:39;19.70;79.60
51811;DHT22;52468;40.116;18.296;2022-09-28T04:09:07;19.60;79.70
51811;DHT22;52468;40.116;18.296;2022-09-28T04:11:35;19.60;79.60
51811;DHT22;52468;40.116;18.296;2022-09-28T04:14:14;19.60;79.80
51811;DHT22;52468;40.116;18.296;2022-09-28T04:16:42;19.60;79.70
51811;DHT22;52468;40.116;18.296;2022-09-28T04:19:14;19.50;79.90
51811;DHT22;52468;40.116;18.296;2022-09-28T04:21:48;19.60;80.20
51811;DHT22;52468;40.116;18.296;2022-09-28T04:24:19;19.60;80.30
51811;DHT22;52468;40.116;18.296;2022-09-28T04:26:47;19.60;80.60
51811;DHT22;52468;40.116;18.296;2022-09-28T04:29:17;19.70;80.60
51811;DHT22;52468;40.116;18.296;2022-09-28T04:31:56;19.70;80.60
51811;DHT22;52468;40.116;18.296;2022-09-28T04:34:31;19.70;80.50
51811;DHT22;52468;40.116;18.296;2022-09-28T04:37:02;19.70;80.50
51811;DHT22;52468;40.116;18.296;2022-09-28T04:39:30;19.70;80.50
51811;DHT22;52468;40.116;18.296;2022-09-28T04:41:58;19.70;80.40
51811;DHT22;52468;40.116;18.296;2022-09-28T04:44:27;19.70;80.40
51811;DHT22;52468;40.116;18.296;2022-09-28T04:47:01;19.70;80.50
51811;DHT22;52468;40.116;18.296;2022-09-28T04:49:31;19.70;80.90
51811;DHT22;52468;40.116;18.296;2022-09-28T04:52:07;19.70;81.00
51811;DHT22;52468;40.116;18.296;2022-09-28T04:54:35;19.80;81.00
51811;DHT22;52468;40.116;18.296;2022-09-28T04:57:03;19.80;81.10
51811;DHT22;52468;40.116;18.296;2022-09-28T04:59:32;19.80;80.80
51811;DHT22;52468;40.116;18.296;2022-09-28T05:02:00;19.80;80.80
51811;DHT22;52468;40.116;18.296;2022-09-28T05:04:47;19.80;81.00
51811;DHT22;52468;40.116;18.296;2022-09-28T05:07:15;19.90;81.30
51811;DHT22;52468;40.116;18.296;2022-09-28T05:09:43;20.00;81.50
51811;DHT22;52468;40.116;18.296;2022-09-28T05:12:11;20.10;81.40
51811;DHT22;52468;40.116;18.296;2022-09-28T05:14:39;20.30;81.20
51811;DHT22;52468;40.116;18.296;2022-09-28T05:17:09;20.50;81.00
51811;DHT22;52468;40.116;18.296;2022-09-28T05:19:55;20.50;80.90
51811;DHT22;52468;40.116;18.296;2022-09-28T05:22:24;20.70;81.00
51811;DHT22;52468;40.116;18.296;2022-09-28T05:24:54;21.00;80.50
51811;DHT22;52468;40.116;18.296;2022-09-28T05:27:23;21.10;80.20
51811;DHT22;52468;40.116;18.296;2022-09-28T05:30:00;21.40;80.10
51811;DHT22;52468;40.116;18.296;2022-09-28T05:33:02;21.60;79.30
51811;DHT22;52468;40.116;18.296;2022-09-28T05:35:47;21.80;78.90
51811;DHT22;52468;40.116;18.296;2022-09-28T05:38:17;22.00;78.70
51811;DHT22;52468;40.116;18.296;2022-09-28T05:40:45;22.20;78.30
51811;DHT22;52468;40.116;18.296;2022-09-28T05:43:14;22.40;78.00
51811;DHT22;52468;40.116;18.296;2022-09-28T05:45:44;22.50;77.50
51811;DHT22;52468;40.116;18.296;2022-09-28T05:48:13;22.60;77.10
51811;DHT22;52468;40.116;18.296;2022-09-28T05:50:42;22.80;76.30
51811;DHT22;52468;40.116;18.296;2022-09-28T05:53:10;22.90;76.60
51811;DHT22;52468;40.116;18.296;2022-09-28T05:55:39;23.00;76.00
51811;DHT22;52468;40.116;18.296;2022-09-28T05:58:06;23.10;75.40
51811;DHT22;52468;40.116;18.296;2022-09-28T06:00:35;23.30;75.10
51811;DHT22;52468;40.116;18.296;2022-09-28T06:03:05;23.40;74.70
51811;DHT22;52468;40.116;18.296;2022-09-28T06:05:36;23.50;74.00
51811;DHT22;52468;40.116;18.296;2022-09-28T06:08:08;23.60;74.10
51811;DHT22;52468;40.116;18.296;2022-09-28T06:10:41;23.70;73.10
51811;DHT22;52468;40.116;18.296;2022-09-28T06:13:09;24.00;72.50
51811;DHT22;52468;40.116;18.296;2022-09-28T06:15:41;24.10;72.00
51811;DHT22;52468;40.116;18.296;2022-09-28T06:18:12;24.20;71.60
51811;DHT22;52468;40.116;18.296;2022-09-28T06:21:01;24.30;71.10
51811;DHT22;52468;40.116;18.296;2022-09-28T06:23:35;24.50;70.10
51811;DHT22;52468;40.116;18.296;2022-09-28T06:26:05;24.60;69.60
51811;DHT22;52468;40.116;18.296;2022-09-28T06:28:33;24.70;69.10
51811;DHT22;52468;40.116;18.296;2022-09-28T06:31:01;24.80;68.40
51811;DHT22;52468;40.116;18.296;2022-09-28T06:33:30;25.00;67.50
51811;DHT22;52468;40.116;18.296;2022-09-28T06:35:59;25.10;67.20
51811;DHT22;52468;40.116;18.296;2022-09-28T06:38:27;25.20;66.60
51811;DHT22;52468;40.116;18.296;2022-09-28T06:40:56;25.20;66.40
51811;DHT22;52468;40.116;18.296;2022-09-28T06:43:24;25.30;66.20
51811;DHT22;52468;40.116;18.296;2022-09-28T06:46:11;25.40;65.80
51811;DHT22;52468;40.116;18.296;2022-09-28T06:48:40;25.50;65.90
51811;DHT22;52468;40.116;18.296;2022-09-28T06:51:12;25.60;65.30
51811;DHT22;52468;40.116;18.296;2022-09-28T06:53:55;25.80;64.50
51811;DHT22;52468;40.116;18.296;2022-09-28T06:56:40;25.90;62.80
51811;DHT22;52468;40.116;18.296;2022-09-28T06:59:09;25.90;62.30
51811;DHT22;52468;40.116;18.296;2022-09-28T07:01:38;26.00;62.10
51811;DHT22;52468;40.116;18.296;2022-09-28T07:04:41;26.00;61.50
51811;DHT22;52468;40.116;18.296;2022-09-28T07:07:32;26.00;60.50
51811;DHT22;52468;40.116;18.296;2022-09-28T07:10:16;26.20;59.80
51811;DHT22;52468;40.116;18.296;2022-09-28T07:13:03;26.20;58.90
51811;DHT22;52468;40.116;18.296;2022-09-28T07:15:42;26.20;58.10
51811;DHT22;52468;40.116;18.296;2022-09-28T07:18:13;26.30;57.80
51811;DHT22;52468;40.116;18.296;2022-09-28T07:20:43;26.50;57.20
51811;DHT22;52468;40.116;18.296;2022-09-28T07:23:16;26.60;53.40
51811;DHT22;52468;40.116;18.296;2022-09-28T07:26:24;26.70;50.70
51811;DHT22;52468;40.116;18.296;2022-09-28T07:29:04;26.70;50.40
51811;DHT22;52468;40.116;18.296;2022-09-28T07:32:13;26.80;49.40
51811;DHT22;52468;40.116;18.296;2022-09-28T07:35:01;26.80;49.00
51811;DHT22;52468;40.116;18.296;2022-09-28T07:37:42;26.60;48.50
51811;DHT22;52468;40.116;18.296;2022-09-28T07:40:11;26.70;48.40
51811;DHT22;52468;40.116;18.296;2022-09-28T07:43:05;26.70;47.80
51811;DHT22;52468;40.116;18.296;2022-09-28T07:45:33;26.80;46.80
51811;DHT22;52468;40.116;18.296;2022-09-28T07:48:04;26.90;46.00
51811;DHT22;52468;40.116;18.296;2022-09-28T07:50:56;27.00;45.50
51811;DHT22;52468;40.116;18.296;2022-09-28T07:53:37;27.00;46.00
51811;DHT22;52468;40.116;18.296;2022-09-28T07:56:28;27.00;46.00
51811;DHT22;52468;40.116;18.296;2022-09-28T07:59:26;27.00;46.40
51811;DHT22;52468;40.116;18.296;2022-09-28T08:02:12;27.10;46.60
51811;DHT22;52468;40.116;18.296;2022-09-28T08:04:41;27.10;46.90
51811;DHT22;52468;40.116;18.296;2022-09-28T08:07:10;27.20;46.20
51811;DHT22;52468;40.116;18.296;2022-09-28T08:09:39;27.30;46.20
51811;DHT22;52468;40.116;18.296;2022-09-28T08:12:25;27.30;47.10
51811;DHT22;52468;40.116;18.296;2022-09-28T08:15:17;27.30;46.90
51811;DHT22;52468;40.116;18.296;2022-09-28T08:18:12;27.40;47.60
51811;DHT22;52468;40.116;18.296;2022-09-28T08:20:40;27.60;46.50
51811;DHT22;52468;40.116;18.296;2022-09-28T08:23:26;27.60;46.00
51811;DHT22;52468;40.116;18.296;2022-09-28T08:25:54;27.70;46.20
51811;DHT22;52468;40.116;18.296;2022-09-28T08:28:23;27.90;46.40
51811;DHT22;52468;40.116;18.296;2022-09-28T08:30:58;27.90;46.00
51811;DHT22;52468;40.116;18.296;2022-09-28T08:34:04;27.90;45.00
51811;DHT22;52468;40.116;18.296;2022-09-28T08:36:50;27.90;44.40
51811;DHT22;52468;40.116;18.296;2022-09-28T08:39:38;28.00;44.40
51811;DHT22;52468;40.116;18.296;2022-09-28T08:45:08;27.90;44.70
51811;DHT22;52468;40.116;18.296;2022-09-28T08:48:07;27.90;43.70
51811;DHT22;52468;40.116;18.296;2022-09-28T08:54:14;28.00;43.10
51811;DHT22;52468;40.116;18.296;2022-09-28T09:00:04;28.00;43.40
51811;DHT22;52468;40.116;18.296;2022-09-28T09:02:37;28.00;43.10
51811;DHT22;52468;40.116;18.296;2022-09-28T09:05:18;28.00;43.10
51811;DHT22;52468;40.116;18.296;2022-09-28T09:14:26;28.50;42.20
51811;DHT22;52468;40.116;18.296;2022-09-28T09:17:31;28.50;42.20
51811;DHT22;52468;40.116;18.296;2022-09-28T09:20:52;28.60;42.60
51811;DHT22;52468;40.116;18.296;2022-09-28T09:23:54;28.70;42.20
51811;DHT22;52468;40.116;18.296;2022-09-28T09:38:04;29.00;42.00
51811;DHT22;52468;40.116;18.296;2022-09-28T09:44:29;29.00;40.90
51811;DHT22;52468;40.116;18.296;2022-09-28T09:47:37;28.90;39.70
51811;DHT22;52468;40.116;18.296;2022-09-28T09:50:37;29.00;39.60
51811;DHT22;52468;40.116;18.296;2022-09-28T09:53:29;29.00;39.50
51811;DHT22;52468;40.116;18.296;2022-09-28T09:56:14;29.10;39.10
51811;DHT22;52468;40.116;18.296;2022-09-28T09:59:07;29.20;38.90
51811;DHT22;52468;40.116;18.296;2022-09-28T10:01:52;29.50;38.20
51811;DHT22;52468;40.116;18.296;2022-09-28T10:04:43;29.50;38.30
51811;DHT22;52468;40.116;18.296;2022-09-28T10:07:42;29.60;38.00
51811;DHT22;52468;40.116;18.296;2022-09-28T10:10:35;29.60;38.40
51811;DHT22;52468;40.116;18.296;2022-09-28T10:13:09;29.60;38.30
51811;DHT22;52468;40.116;18.296;2022-09-28T10:15:39;29.60;38.70
51811;DHT22;52468;40.116;18.296;2022-09-28T10:18:28;29.60;39.20
51811;DHT22;52468;40.116;18.296;2022-09-28T10:21:18;29.50;39.70
51811;DHT22;52468;40.116;18.296;2022-09-28T10:23:56;29.60;40.00
51811;DHT22;52468;40.116;18.296;2022-09-28T10:26:39;29.70;40.30
51811;DHT22;52468;40.116;18.296;2022-09-28T10:29:22;29.60;40.60
51811;DHT22;52468;40.116;18.296;2022-09-28T10:31:52;29.50;41.10
51811;DHT22;52468;40.116;18.296;2022-09-28T10:34:29;29.50;41.40
51811;DHT22;52468;40.116;18.296;2022-09-28T10:37:10;29.50;41.50
51811;DHT22;52468;40.116;18.296;2022-09-28T10:39:58;29.70;41.60
51811;DHT22;52468;40.116;18.296;2022-09-28T10:42:34;29.90;40.80
51811;DHT22;52468;40.116;18.296;2022-09-28T10:45:21;30.00;40.80
51811;DHT22;52468;40.116;18.296;2022-09-28T10:47:50;30.10;39.30
51811;DHT22;52468;40.116;18.296;2022-09-28T10:50:25;29.80;39.50
51811;DHT22;52468;40.116;18.296;2022-09-28T10:53:17;29.60;39.20
51811;DHT22;52468;40.116;18.296;2022-09-28T10:56:28;29.50;38.50
51811;DHT22;52468;40.116;18.296;2022-09-28T11:02:30;29.20;37.00
51811;DHT22;52468;40.116;18.296;2022-09-28T11:05:06;29.20;35.60
51811;DHT22;52468;40.116;18.296;2022-09-28T11:07:45;29.40;35.60
51811;DHT22;52468;40.116;18.296;2022-09-28T11:10:26;29.50;34.90
51811;DHT22;52468;40.116;18.296;2022-09-28T11:12:59;29.70;34.60
51811;DHT22;52468;40.116;18.296;2022-09-28T11:15:31;29.80;35.00
51811;DHT22;52468;40.116;18.296;2022-09-28T11:18:26;29.90;34.00
51811;DHT22;52468;40.116;18.296;2022-09-28T11:21:14;29.70;33.10
51811;DHT22;52468;40.116;18.296;2022-09-28T11:26:54;29.50;33.40
51811;DHT22;52468;40.116;18.296;2022-09-28T11:32:19;29.90;34.70
51811;DHT22;52468;40.116;18.296;2022-09-28T11:44:37;29.90;36.80
51811;DHT22;52468;40.116;18.296;2022-09-28T11:50:34;29.80;37.90
51811;DHT22;52468;40.116;18.296;2022-09-28T11:59:02;29.80;37.70
51811;DHT22;52468;40.116;18.296;2022-09-28T12:01:49;29.80;37.60
51811;DHT22;52468;40.116;18.296;2022-09-28T12:04:42;29.80;38.10
51811;DHT22;52468;40.116;18.296;2022-09-28T12:07:30;29.90;37.80
51811;DHT22;52468;40.116;18.296;2022-09-28T12:10:15;30.00;36.90
51811;DHT22;52468;40.116;18.296;2022-09-28T12:15:25;30.40;37.30
51811;DHT22;52468;40.116;18.296;2022-09-28T12:18:09;30.40;36.20
51811;DHT22;52468;40.116;18.296;2022-09-28T12:20:42;30.50;36.30
51811;DHT22;52468;40.116;18.296;2022-09-28T12:23:18;30.60;36.20
51811;DHT22;52468;40.116;18.296;2022-09-28T12:25:58;30.60;36.00
51811;DHT22;52468;40.116;18.296;2022-09-28T12:28:48;30.70;36.10
51811;DHT22;52468;40.116;18.296;2022-09-28T12:31:20;30.60;35.50
51811;DHT22;52468;40.116;18.296;2022-09-28T12:33:50;30.50;35.80
51811;DHT22;52468;40.116;18.296;2022-09-28T12:39:41;30.80;35.40
51811;DHT22;52468;40.116;18.296;2022-09-28T12:42:35;31.00;35.40
51811;DHT22;52468;40.116;18.296;2022-09-28T12:46:21;30.90;35.10
51811;DHT22;52468;40.116;18.296;2022-09-28T12:51:55;31.10;35.50
51811;DHT22;52468;40.116;18.296;2022-09-28T13:00:15;31.40;35.10
51811;DHT22;52468;40.116;18.296;2022-09-28T13:10:40;31.20;35.00
51811;DHT22;52468;40.116;18.296;2022-09-28T13:16:08;31.00;34.70
51811;DHT22;52468;40.116;18.296;2022-09-28T13:24:12;31.20;34.20
51811;DHT22;52468;40.116;18.296;2022-09-28T13:27:05;31.00;34.40
51811;DHT22;52468;40.116;18.296;2022-09-28T13:29:37;30.90;35.10
51811;DHT22;52468;40.116;18.296;2022-09-28T13:32:11;31.00;35.00
51811;DHT22;52468;40.116;18.296;2022-09-28T13:34:39;30.90;34.70
51811;DHT22;52468;40.116;18.296;2022-09-28T13:56:36;31.00;34.70
51811;DHT22;52468;40.116;18.296;2022-09-28T13:59:22;30.80;34.70
51811;DHT22;52468;40.116;18.296;2022-09-28T14:12:48;29.70;36.00
51811;DHT22;52468;40.116;18.296;2022-09-28T14:23:54;34.10;29.70
51811;DHT22;52468;40.116;18.296;2022-09-28T14:27:00;36.10;27.50
51811;DHT22;52468;40.116;18.296;2022-09-28T14:29:33;38.00;25.80
51811;DHT22;52468;40.116;18.296;2022-09-28T14:37:16;40.80;23.80
51811;DHT22;52468;40.116;18.296;2022-09-28T14:40:28;41.10;22.90
51811;DHT22;52468;40.116;18.296;2022-09-28T14:43:35;41.40;22.40
51811;DHT22;52468;40.116;18.296;2022-09-28T14:59:27;37.80;27.10
51811;DHT22;52468;40.116;18.296;2022-09-28T15:04:58;39.10;25.60
51811;DHT22;52468;40.116;18.296;2022-09-28T15:07:46;39.50;25.30
51811;DHT22;52468;40.116;18.296;2022-09-28T15:10:37;39.30;25.50
51811;DHT22;52468;40.116;18.296;2022-09-28T15:13:20;39.00;25.60
51811;DHT22;52468;40.116;18.296;2022-09-28T15:16:04;37.60;27.20
51811;DHT22;52468;40.116;18.296;2022-09-28T15:21:20;33.20;32.60
51811;DHT22;52468;40.116;18.296;2022-09-28T15:23:48;31.70;34.90
51811;DHT22;52468;40.116;18.296;2022-09-28T15:26:31;30.80;36.20
51811;DHT22;52468;40.116;18.296;2022-09-28T15:28:59;29.90;37.80
51811;DHT22;52468;40.116;18.296;2022-09-28T15:31:34;29.20;39.80
51811;DHT22;52468;40.116;18.296;2022-09-28T15:34:02;28.50;41.90
51811;DHT22;52468;40.116;18.296;2022-09-28T15:36:48;28.10;43.20
51811;DHT22;52468;40.116;18.296;2022-09-28T15:39:30;27.90;44.60
51811;DHT22;52468;40.116;18.296;2022-09-28T15:42:00;27.70;45.60
51811;DHT22;52468;40.116;18.296;2022-09-28T15:44:33;27.60;46.20
51811;DHT22;52468;40.116;18.296;2022-09-28T15:47:13;27.50;47.00
51811;DHT22;52468;40.116;18.296;2022-09-28T15:50:05;27.30;47.50
51811;DHT22;52468;40.116;18.296;2022-09-28T15:52:36;27.20;48.30
51811;DHT22;52468;40.116;18.296;2022-09-28T15:57:47;27.10;49.70
51811;DHT22;52468;40.116;18.296;2022-09-28T16:00:27;27.00;50.40
51811;DHT22;52468;40.116;18.296;2022-09-28T16:05:43;27.00;51.00
51811;DHT22;52468;40.116;18.296;2022-09-28T16:08:19;27.00;51.30
51811;DHT22;52468;40.116;18.296;2022-09-28T16:14:06;26.80;52.10
51811;DHT22;52468;40.116;18.296;2022-09-28T16:16:49;26.60;52.60
51811;DHT22;52468;40.116;18.296;2022-09-28T16:19:23;26.60;52.80
51811;DHT22;52468;40.116;18.296;2022-09-28T16:21:57;26.40;53.40
51811;DHT22;52468;40.116;18.296;2022-09-28T16:24:35;26.20;53.70
51811;DHT22;52468;40.116;18.296;2022-09-28T16:27:15;26.00;54.20
51811;DHT22;52468;40.116;18.296;2022-09-28T16:33:04;25.60;55.10
51811;DHT22;52468;40.116;18.296;2022-09-28T16:38:12;25.30;56.10
51811;DHT22;52468;40.116;18.296;2022-09-28T16:40:46;25.00;56.60
51811;DHT22;52468;40.116;18.296;2022-09-28T16:43:27;24.90;57.10
51811;DHT22;52468;40.116;18.296;2022-09-28T16:45:58;24.70;57.60
51811;DHT22;52468;40.116;18.296;2022-09-28T16:48:29;24.60;58.00
51811;DHT22;52468;40.116;18.296;2022-09-28T16:50:58;24.50;58.50
51811;DHT22;52468;40.116;18.296;2022-09-28T16:53:26;24.40;58.90
51811;DHT22;52468;40.116;18.296;2022-09-28T16:56:12;24.30;59.30
51811;DHT22;52468;40.116;18.296;2022-09-28T16:58:40;24.20;59.60
51811;DHT22;52468;40.116;18.296;2022-09-28T17:01:10;24.20;60.00
51811;DHT22;52468;40.116;18.296;2022-09-28T17:03:39;24.10;60.10
51811;DHT22;52468;40.116;18.296;2022-09-28T17:06:10;24.00;60.50
51811;DHT22;52468;40.116;18.296;2022-09-28T17:08:39;24.00;60.80
51811;DHT22;52468;40.116;18.296;2022-09-28T17:11:14;23.90;61.40
51811;DHT22;52468;40.116;18.296;2022-09-28T17:13:46;23.80;61.60
51811;DHT22;52468;40.116;18.296;2022-09-28T17:16:16;23.80;61.70
51811;DHT22;52468;40.116;18.296;2022-09-28T17:18:45;23.80;61.90
51811;DHT22;52468;40.116;18.296;2022-09-28T17:21:16;23.70;62.20
51811;DHT22;52468;40.116;18.296;2022-09-28T17:23:46;23.60;62.50
51811;DHT22;52468;40.116;18.296;2022-09-28T17:26:24;23.50;63.00
51811;DHT22;52468;40.116;18.296;2022-09-28T17:28:57;23.50;63.10
51811;DHT22;52468;40.116;18.296;2022-09-28T17:31:26;23.50;63.60
51811;DHT22;52468;40.116;18.296;2022-09-28T17:33:55;23.50;63.80
51811;DHT22;52468;40.116;18.296;2022-09-28T17:36:23;23.50;64.10
51811;DHT22;52468;40.116;18.296;2022-09-28T17:38:54;23.40;64.50
51811;DHT22;52468;40.116;18.296;2022-09-28T17:41:26;23.40;64.80
51811;DHT22;52468;40.116;18.296;2022-09-28T17:43:54;23.40;65.30
51811;DHT22;52468;40.116;18.296;2022-09-28T17:46:29;23.30;65.60
51811;DHT22;52468;40.116;18.296;2022-09-28T17:49:00;23.20;66.00
51811;DHT22;52468;40.116;18.296;2022-09-28T17:51:31;23.20;66.30
51811;DHT22;52468;40.116;18.296;2022-09-28T17:54:01;23.20;66.70
51811;DHT22;52468;40.116;18.296;2022-09-28T17:56:33;23.10;66.90
51811;DHT22;52468;40.116;18.296;2022-09-28T17:59:04;23.10;67.10
51811;DHT22;52468;40.116;18.296;2022-09-28T18:01:37;23.10;67.10
51811;DHT22;52468;40.116;18.296;2022-09-28T18:04:09;23.10;67.20
51811;DHT22;52468;40.116;18.296;2022-09-28T18:06:43;23.10;67.20
51811;DHT22;52468;40.116;18.296;2022-09-28T18:09:14;23.00;67.20
51811;DHT22;52468;40.116;18.296;2022-09-28T18:11:43;23.00;67.30
51811;DHT22;52468;40.116;18.296;2022-09-28T18:14:15;23.00;67.30
51811;DHT22;52468;40.116;18.296;2022-09-28T18:16:44;23.00;67.40
51811;DHT22;52468;40.116;18.296;2022-09-28T18:19:13;22.90;67.50
51811;DHT22;52468;40.116;18.296;2022-09-28T18:21:42;22.90;67.60
51811;DHT22;52468;40.116;18.296;2022-09-28T18:24:13;22.80;67.70
51811;DHT22;52468;40.116;18.296;2022-09-28T18:26:42;22.80;67.90
51811;DHT22;52468;40.116;18.296;2022-09-28T18:29:15;22.80;67.90
51811;DHT22;52468;40.116;18.296;2022-09-28T18:31:44;22.80;67.90
51811;DHT22;52468;40.116;18.296;2022-09-28T18:34:13;22.80;68.00
51811;DHT22;52468;40.116;18.296;2022-09-28T18:36:43;22.80;68.10
51811;DHT22;52468;40.116;18.296;2022-09-28T18:39:12;22.80;68.10
51811;DHT22;52468;40.116;18.296;2022-09-28T18:41:41;22.80;68.10
51811;DHT22;52468;40.116;18.296;2022-09-28T18:44:11;22.90;68.10
51811;DHT22;52468;40.116;18.296;2022-09-28T18:46:41;23.00;68.00
51811;DHT22;52468;40.116;18.296;2022-09-28T18:49:09;23.00;67.70
51811;DHT22;52468;40.116;18.296;2022-09-28T18:51:40;23.00;67.70
51811;DHT22;52468;40.116;18.296;2022-09-28T18:54:11;23.10;67.60
51811;DHT22;52468;40.116;18.296;2022-09-28T18:56:43;23.10;67.40
51811;DHT22;52468;40.116;18.296;2022-09-28T18:59:11;23.10;67.40
51811;DHT22;52468;40.116;18.296;2022-09-28T19:01:41;23.20;67.30
51811;DHT22;52468;40.116;18.296;2022-09-28T19:04:12;23.20;67.10
51811;DHT22;52468;40.116;18.296;2022-09-28T19:06:41;23.30;67.00
51811;DHT22;52468;40.116;18.296;2022-09-28T19:09:12;23.40;66.80
51811;DHT22;52468;40.116;18.296;2022-09-28T19:11:41;23.40;66.60
51811;DHT22;52468;40.116;18.296;2022-09-28T19:14:11;23.40;66.60
51811;DHT22;52468;40.116;18.296;2022-09-28T19:16:45;23.30;66.60
51811;DHT22;52468;40.116;18.296;2022-09-28T19:19:16;23.30;66.50
51811;DHT22;52468;40.116;18.296;2022-09-28T19:21:47;23.30;66.60
51811;DHT22;52468;40.116;18.296;2022-09-28T19:24:17;23.20;66.60
51811;DHT22;52468;40.116;18.296;2022-09-28T19:26:49;23.10;66.70
51811;DHT22;52468;40.116;18.296;2022-09-28T19:29:21;23.00;66.90
51811;DHT22;52468;40.116;18.296;2022-09-28T19:31:51;22.80;67.20
51811;DHT22;52468;40.116;18.296;2022-09-28T19:34:22;22.70;67.60